Swallowfield Close, Crewe weather

Latitude N 53° 04' 54" Longitude W 02° 27' 25" Elevation 52 m Grid Ref SJ69475393

This page shows a table of observations data for today using the Cumulus "recent history" webtags facility. It is experimental only. The table shows data observations at 10 minute intervals for the 8 hours prior to 20:50 on Monday 21 January i.e. the time this page was processed by Cumulus. Ideally in the long-term this will be replaced by a script to read data/realtimelog.txt for the current (or selectable) date and display all the observations for the applicable meteorological date (21/01/2019 in this case) starting at midnight (rollover time). This will fix the start of the observations table to a defined point.

The graph shows the same data but at 5-minute intervals.


Table of observations data (at 10-minute intervals) for Swallowfield Close, Crewe since 11:50 on 21/01/2019
Observations
Time Temp Wind Chill Dewpoint Pressure Wind Speed Wind Gust Wind Dir Humidity Rainfall
11:50 5.6 °C 4.2 °C 3.1 °C 1014.9 hPa 6.6 km/h 8.6 km/h 84 % 0.6 mm
12:00 5.7 °C 4.4 °C 3.2 °C 1014.8 hPa 6.4 km/h 11.2 km/h 84 % 0.6 mm
12:10 5.8 °C 4.0 °C 3.3 °C 1014.7 hPa 8.2 km/h 12.2 km/h 84 % 0.6 mm
12:20 5.8 °C 3.9 °C 3.1 °C 1014.4 hPa 8.5 km/h 11.2 km/h 83 % 0.6 mm
12:30 5.9 °C 4.7 °C 3.1 °C 1014.2 hPa 6.3 km/h 12.2 km/h 82 % 0.6 mm
12:40 6.0 °C 4.9 °C 3.0 °C 1013.9 hPa 6.1 km/h 6.1 km/h 81 % 0.6 mm
12:50 5.9 °C 4.4 °C 3.1 °C 1013.7 hPa 7.3 km/h 9.7 km/h 82 % 0.6 mm
13:00 6.1 °C 5.2 °C 3.1 °C 1013.2 hPa 5.3 km/h 8.6 km/h 81 % 0.6 mm
13:10 6.2 °C 4.7 °C 3.0 °C 1013.2 hPa 7.4 km/h 8.6 km/h 80 % 0.6 mm
13:20 6.2 °C 4.2 °C 2.8 °C 1013.0 hPa 9.4 km/h 12.2 km/h 79 % 0.6 mm
13:30 6.3 °C 4.9 °C 2.9 °C 1012.9 hPa 6.9 km/h 7.2 km/h 79 % 0.6 mm
13:40 6.5 °C 5.3 °C 3.1 °C 1012.7 hPa 6.4 km/h 11.2 km/h 79 % 0.6 mm
13:50 6.4 °C 5.2 °C 3.0 °C 1012.5 hPa 6.6 km/h 11.2 km/h 79 % 0.6 mm
14:00 6.5 °C 5.4 °C 3.1 °C 1012.5 hPa 6.3 km/h 7.2 km/h 79 % 0.6 mm
14:10 6.5 °C 5.4 °C 3.1 °C 1012.0 hPa 6.1 km/h 8.6 km/h 79 % 0.6 mm
14:20 6.4 °C 5.4 °C 2.8 °C 1012.0 hPa 5.7 km/h 9.7 km/h 78 % 0.6 mm
14:30 6.3 °C 5.0 °C 2.7 °C 1011.7 hPa 6.9 km/h 9.7 km/h 78 % 0.6 mm
14:40 6.3 °C 5.3 °C 2.6 °C 1011.5 hPa 5.9 km/h 9.7 km/h 77 % 0.6 mm
14:50 6.2 °C 4.8 °C 2.5 °C 1011.3 hPa 6.9 km/h 11.2 km/h 77 % 0.6 mm
15:00 6.2 °C 4.8 °C 2.5 °C 1011.0 hPa 7.0 km/h 12.2 km/h 77 % 0.6 mm
15:10 6.1 °C 4.6 °C 2.4 °C 1010.8 hPa 7.2 km/h 7.2 km/h 77 % 0.6 mm
15:20 6.0 °C 4.4 °C 2.3 °C 1010.4 hPa 7.5 km/h 13.3 km/h 77 % 0.6 mm
15:30 5.8 °C 4.7 °C 2.3 °C 1010.3 hPa 5.8 km/h 13.3 km/h 78 % 0.6 mm
15:40 5.8 °C 4.7 °C 2.3 °C 1010.1 hPa 5.7 km/h 7.2 km/h 78 % 0.6 mm
15:50 5.7 °C 4.4 °C 2.2 °C 1009.8 hPa 6.4 km/h 9.7 km/h 78 % 0.6 mm
16:00 5.7 °C 4.1 °C 2.2 °C 1009.7 hPa 7.4 km/h 14.8 km/h 78 % 0.6 mm
16:10 5.6 °C 3.4 °C 2.1 °C 1009.5 hPa 9.7 km/h 15.8 km/h 78 % 0.6 mm
16:20 5.6 °C 3.7 °C 2.1 °C 1009.4 hPa 8.6 km/h 18.4 km/h 78 % 0.6 mm
16:30 5.5 °C 4.0 °C 2.0 °C 1009.1 hPa 7.0 km/h 14.8 km/h 78 % 0.6 mm
16:40 5.4 °C 3.7 °C 1.9 °C 1008.8 hPa 7.6 km/h 14.8 km/h 78 % 0.6 mm
16:50 5.4 °C 3.4 °C 1.9 °C 1008.6 hPa 8.9 km/h 11.2 km/h 78 % 0.6 mm
17:00 5.3 °C 3.0 °C 1.8 °C 1008.3 hPa 10.3 km/h 15.8 km/h 78 % 0.6 mm
17:10 5.2 °C 2.9 °C 1.9 °C 1008.3 hPa 10.2 km/h 13.3 km/h 79 % 0.6 mm
17:20 5.1 °C 2.7 °C 1.9 °C 1007.9 hPa 10.5 km/h 19.4 km/h 80 % 0.6 mm
17:30 5.1 °C 3.6 °C 1.9 °C 1007.8 hPa 6.9 km/h 12.2 km/h 80 % 0.6 mm
17:40 5.1 °C 3.5 °C 1.9 °C 1007.6 hPa 7.1 km/h 12.2 km/h 80 % 0.6 mm
17:50 5.0 °C 3.0 °C 1.8 °C 1007.1 hPa 8.3 km/h 11.2 km/h 80 % 0.6 mm
18:00 4.9 °C 2.6 °C 1.9 °C 1006.9 hPa 9.9 km/h 15.8 km/h 81 % 0.6 mm
18:10 4.9 °C 2.5 °C 1.9 °C 1006.6 hPa 10.3 km/h 17.3 km/h 81 % 0.6 mm
18:20 4.8 °C 3.3 °C 1.8 °C 1006.3 hPa 6.6 km/h 13.3 km/h 81 % 0.6 mm
18:30 4.8 °C 2.5 °C 2.0 °C 1006.1 hPa 9.7 km/h 14.8 km/h 82 % 0.6 mm
18:40 4.7 °C 2.1 °C 1.9 °C 1005.9 hPa 11.1 km/h 19.4 km/h 82 % 0.6 mm
18:50 4.8 °C 2.1 °C 2.0 °C 1005.6 hPa 11.5 km/h 15.8 km/h 82 % 0.6 mm
19:00 4.8 °C 2.2 °C 2.0 °C 1005.3 hPa 10.9 km/h 17.3 km/h 82 % 0.6 mm
19:10 4.9 °C 2.5 °C 2.1 °C 1005.0 hPa 10.3 km/h 14.8 km/h 82 % 0.6 mm
19:20 5.0 °C 1.8 °C 2.0 °C 1004.8 hPa 14.7 km/h 22.0 km/h 81 % 0.6 mm
19:30 5.0 °C 1.7 °C 2.0 °C 1004.4 hPa 15.1 km/h 18.4 km/h 81 % 0.6 mm
19:40 5.0 °C 2.0 °C 1.8 °C 1004.0 hPa 13.7 km/h 24.5 km/h 80 % 0.6 mm
19:50 4.9 °C 2.1 °C 1.9 °C 1004.0 hPa 12.4 km/h 20.9 km/h 81 % 0.6 mm
20:00 5.0 °C 1.6 °C 1.8 °C 1003.6 hPa 15.7 km/h 23.4 km/h 80 % 0.6 mm
20:10 5.0 °C 1.8 °C 1.8 °C 1003.4 hPa 14.9 km/h 20.9 km/h 80 % 0.6 mm
20:20 5.0 °C 2.4 °C 1.8 °C 1003.1 hPa 11.4 km/h 22.0 km/h 80 % 0.6 mm
20:30 5.0 °C 2.2 °C 1.8 °C 1002.8 hPa 12.0 km/h 18.4 km/h 80 % 0.6 mm
20:40 5.0 °C 1.6 °C 2.0 °C 1002.4 hPa 15.8 km/h 20.9 km/h 81 % 0.6 mm
:now: :trends: :gauges: :today/yesterday: :observations:
:month/year: :monthly records: :all-time records: :annual data: :noaa reports: :seasonal averages:
:mobile: :forum: :webcam: :system:



Page updated 21/01/2019 20:50:10
powered by Cumulus v1.9.4 (1099)